Time;durP1;ratioP1;P1;durP2;ratioP2;P2;SDS_P1;SDS_P2;PMS_P1;PMS_P2;Temp;Humidity;BMP_temperature;BMP_pressure;BME280_temperature;BME280_humidity;BME280_pressure;Samples;Min_cycle;Max_cycle;Signal;HPM_P1;HPM_P2
2024/03/29 01:43:24;;;;;;;3.00;0.90;;;7.60;1.00;;;;;;4989502;28;20217;-81
2024/03/29 01:45:54;;;;;;;1.93;0.60;;;7.70;1.00;;;;;;5012126;28;20275;-81
2024/03/29 01:48:23;;;;;;;0.83;0.63;;;7.70;1.00;;;;;;5014555;28;20212;-80
2024/03/29 01:50:52;;;;;;;4.63;0.93;;;7.70;1.00;;;;;;5013289;28;20555;-79
2024/03/29 01:53:20;;;;;;;4.23;1.00;;;7.60;1.00;;;;;;5015001;28;20212;-78
2024/03/29 01:55:48;;;;;;;2.03;0.80;;;7.60;1.00;;;;;;5015931;28;20713;-80
2024/03/29 01:58:15;;;;;;;2.47;0.77;;;7.50;1.00;;;;;;5015887;28;20667;-78
2024/03/29 02:00:51;;;;;;;4.97;0.87;;;7.40;1.00;;;;;;5017226;28;20385;-79
2024/03/29 02:03:20;;;;;;;1.33;0.90;;;7.20;1.00;;;;;;5017077;28;20209;-80
2024/03/29 02:05:48;;;;;;;4.80;1.07;;;7.20;1.00;;;;;;5008546;28;20279;-78
2024/03/29 02:08:15;;;;;;;2.67;0.70;;;7.30;1.00;;;;;;5010483;28;20590;-79
2024/03/29 02:10:42;;;;;;;1.43;1.00;;;7.20;1.00;;;;;;5013004;28;20196;-81
2024/03/29 02:13:09;;;;;;;1.97;0.67;;;7.10;1.00;;;;;;5016345;28;20575;-77
2024/03/29 02:15:36;;;;;;;4.40;0.70;;;7.30;1.00;;;;;;5018147;28;20705;-80
2024/03/29 02:18:03;;;;;;;2.40;0.67;;;7.30;1.00;;;;;;5016880;28;20214;-78
2024/03/29 02:20:33;;;;;;;2.40;0.60;;;7.40;1.00;;;;;;5014843;28;20243;-80
2024/03/29 02:23:07;;;;;;;3.73;1.17;;;7.60;1.00;;;;;;5018485;28;20204;-81
2024/03/29 02:25:36;;;;;;;5.43;0.80;;;7.70;1.00;;;;;;5016855;28;20228;-79
2024/03/29 02:28:04;;;;;;;3.10;1.27;;;7.50;1.00;;;;;;5014638;28;20247;-81
2024/03/29 02:30:31;;;;;;;3.67;0.50;;;7.70;1.00;;;;;;5013642;28;20205;-81
2024/03/29 02:32:58;;;;;;;3.60;1.03;;;7.50;1.00;;;;;;5014000;28;20671;-79
2024/03/29 02:35:25;;;;;;;2.47;0.97;;;7.40;1.00;;;;;;5016871;28;20247;-80
2024/03/29 02:37:52;;;;;;;4.17;0.70;;;7.70;1.00;;;;;;5019236;28;20247;-79
2024/03/29 02:40:19;;;;;;;4.00;1.40;;;7.70;1.00;;;;;;5017170;28;20295;-80
2024/03/29 02:42:48;;;;;;;2.83;1.07;;;7.60;1.00;;;;;;5018921;28;20204;-80
2024/03/29 02:45:15;;;;;;;2.10;0.70;;;7.50;1.00;;;;;;5022485;28;20224;-81
2024/03/29 02:47:42;;;;;;;5.00;1.07;;;7.60;1.00;;;;;;5018314;28;20736;-79
2024/03/29 02:50:10;;;;;;;1.77;0.70;;;7.50;1.00;;;;;;5018651;28;20227;-80
2024/03/29 02:52:37;;;;;;;0.90;0.60;;;7.40;1.00;;;;;;5023033;28;20196;-80
2024/03/29 02:55:03;;;;;;;3.53;0.73;;;7.60;1.00;;;;;;5018202;28;20236;-78
2024/03/29 02:57:30;;;;;;;3.97;1.00;;;7.70;1.00;;;;;;5021393;28;20306;-79
2024/03/29 02:59:57;;;;;;;4.83;1.40;;;7.50;1.00;;;;;;5014212;28;20609;-81
2024/03/29 03:02:24;;;;;;;3.03;0.93;;;7.50;1.00;;;;;;5019391;28;20204;-80
2024/03/29 03:04:50;;;;;;;1.00;0.60;;;7.60;1.00;;;;;;5016754;28;20253;-80
2024/03/29 03:12:46;;;;;;;1.70;0.50;;;7.60;1.00;;;;;;5014486;28;20264;-80
2024/03/29 03:15:14;;;;;;;2.63;0.70;;;7.70;1.00;;;;;;5011749;28;20220;-81
2024/03/29 03:17:41;;;;;;;3.23;0.80;;;7.60;1.00;;;;;;5011759;28;20224;-80
2024/03/29 03:20:09;;;;;;;1.77;0.83;;;7.60;1.00;;;;;;5017129;28;20251;-77
2024/03/29 03:22:36;;;;;;;1.03;0.50;;;7.70;1.00;;;;;;5013845;28;20216;-80
2024/03/29 03:25:02;;;;;;;6.43;0.70;;;7.60;1.00;;;;;;5012488;28;20232;-81
2024/03/29 03:27:29;;;;;;;1.87;0.50;;;7.40;1.00;;;;;;5018932;28;20192;-80
2024/03/29 03:29:56;;;;;;;2.00;0.90;;;7.50;1.00;;;;;;5016130;28;20201;-79
2024/03/29 03:32:23;;;;;;;0.80;0.60;;;7.40;1.00;;;;;;5016931;28;20243;-79
2024/03/29 03:34:50;;;;;;;3.33;0.83;;;7.50;1.00;;;;;;5011824;28;20272;-80
2024/03/29 03:37:16;;;;;;;3.10;1.20;;;7.40;1.00;;;;;;5019378;28;20220;-80
2024/03/29 03:39:43;;;;;;;1.23;0.43;;;7.40;1.00;;;;;;5018531;28;20555;-80
2024/03/29 03:42:09;;;;;;;1.67;0.57;;;7.50;1.00;;;;;;5018478;28;20319;-81
2024/03/29 03:44:36;;;;;;;3.50;0.80;;;7.50;1.00;;;;;;5015568;28;20209;-78
2024/03/29 03:47:01;;;;;;;2.43;0.60;;;7.50;1.00;;;;;;5021185;28;20200;-79
2024/03/29 03:49:30;;;;;;;1.40;0.77;;;7.60;1.00;;;;;;5019335;28;20633;-79
2024/03/29 03:51:56;;;;;;;2.37;0.80;;;7.80;1.00;;;;;;5018591;28;20204;-80
2024/03/29 03:54:23;;;;;;;2.80;0.70;;;7.80;1.00;;;;;;5022415;28;20232;-80
2024/03/29 03:56:49;;;;;;;1.80;0.73;;;7.80;1.00;;;;;;5022393;28;20228;-81
2024/03/29 03:59:16;;;;;;;4.07;1.10;;;7.80;1.00;;;;;;5021565;28;20219;-81
2024/03/29 04:01:41;;;;;;;2.50;0.73;;;7.70;1.00;;;;;;5016931;28;20200;-81
2024/03/29 04:04:09;;;;;;;1.20;0.70;;;7.70;1.00;;;;;;5020891;28;20232;-80
2024/03/29 04:06:36;;;;;;;1.90;0.90;;;7.70;1.00;;;;;;5012398;28;20217;-81
2024/03/29 04:09:03;;;;;;;3.77;0.90;;;7.70;1.00;;;;;;5008121;28;20653;-81
2024/03/29 04:11:29;;;;;;;1.30;0.90;;;7.80;1.00;;;;;;5013763;28;20216;-81
2024/03/29 04:13:56;;;;;;;1.83;0.57;;;7.80;1.00;;;;;;5020605;28;20634;-80
2024/03/29 04:16:22;;;;;;;1.43;0.60;;;7.80;1.00;;;;;;5015194;28;20255;-82
2024/03/29 04:18:49;;;;;;;1.87;0.77;;;8.10;1.00;;;;;;5016582;28;20196;-80
2024/03/29 04:21:15;;;;;;;5.50;0.77;;;7.80;1.00;;;;;;5012902;28;20308;-80
2024/03/29 04:23:43;;;;;;;1.50;0.90;;;7.90;1.00;;;;;;5015168;28;20212;-81
2024/03/29 04:26:09;;;;;;;2.90;0.77;;;8.10;1.00;;;;;;5019526;28;20270;-81
2024/03/29 04:28:36;;;;;;;3.40;1.00;;;8.10;1.00;;;;;;5011236;28;20778;-81
2024/03/29 04:31:02;;;;;;;2.67;0.77;;;8.10;1.00;;;;;;5015664;28;20224;-81
2024/03/29 04:33:29;;;;;;;3.07;0.80;;;8.10;99.90;;;;;;5013923;28;20211;-80
2024/03/29 04:35:56;;;;;;;2.13;0.60;;;8.00;1.00;;;;;;5012492;28;20581;-80
2024/03/29 04:38:24;;;;;;;2.77;0.70;;;8.10;1.00;;;;;;5021531;28;20231;-80
2024/03/29 04:40:54;;;;;;;6.57;1.03;;;8.10;99.90;;;;;;5017450;28;20243;-79
2024/03/29 04:43:23;;;;;;;3.60;0.70;;;8.20;99.90;;;;;;5019827;28;20626;-80
2024/03/29 04:45:51;;;;;;;1.60;0.53;;;8.10;1.00;;;;;;5018502;28;20270;-81
2024/03/29 04:48:18;;;;;;;3.40;0.90;;;8.20;99.90;;;;;;5014777;28;20254;-80
2024/03/29 04:50:45;;;;;;;2.93;1.20;;;8.20;99.90;;;;;;5013694;28;20224;-79
2024/03/29 04:53:12;;;;;;;3.40;1.00;;;8.30;99.90;;;;;;5014383;28;20200;-82
2024/03/29 04:55:39;;;;;;;2.20;0.60;;;8.30;99.90;;;;;;5019245;28;20761;-80
2024/03/29 04:58:07;;;;;;;2.37;0.70;;;8.40;99.90;;;;;;5010256;28;20233;-79
2024/03/29 05:00:34;;;;;;;4.17;1.17;;;8.30;99.90;;;;;;5020149;28;20193;-81
2024/03/29 05:03:01;;;;;;;1.50;0.90;;;8.20;99.90;;;;;;5019543;28;20200;-78
2024/03/29 05:05:28;;;;;;;1.43;0.80;;;8.20;99.90;;;;;;5019576;28;20588;-77
2024/03/29 05:07:55;;;;;;;4.87;1.03;;;8.40;99.90;;;;;;5013222;28;20232;-77
2024/03/29 05:10:23;;;;;;;2.63;0.70;;;8.40;99.90;;;;;;5008669;28;20205;-78
2024/03/29 05:12:50;;;;;;;3.80;0.90;;;8.40;99.90;;;;;;5010921;28;20208;-77
2024/03/29 05:15:19;;;;;;;3.93;0.70;;;8.40;99.90;;;;;;5014559;28;20436;-77
2024/03/29 05:17:46;;;;;;;2.40;0.90;;;8.40;99.90;;;;;;5016622;28;20263;-79
2024/03/29 05:20:13;;;;;;;3.50;0.60;;;8.50;99.90;;;;;;5007774;28;20741;-79
2024/03/29 05:22:40;;;;;;;4.30;0.80;;;8.40;99.90;;;;;;5010068;28;20205;-78
2024/03/29 05:25:07;;;;;;;3.83;1.07;;;8.60;99.90;;;;;;5012696;28;20234;-79
2024/03/29 05:27:34;;;;;;;3.63;0.57;;;8.80;99.90;;;;;;5011012;28;22845;-78
2024/03/29 05:30:02;;;;;;;3.97;0.80;;;9.00;99.90;;;;;;5008813;28;20201;-80
2024/03/29 05:32:31;;;;;;;1.13;0.53;;;9.20;99.90;;;;;;5005597;28;20201;-79
2024/03/29 05:34:58;;;;;;;1.60;0.60;;;9.10;99.90;;;;;;5006257;28;20227;-82
2024/03/29 05:37:25;;;;;;;3.07;0.80;;;9.10;99.90;;;;;;5013834;28;20220;-78
2024/03/29 05:39:59;;;;;;;0.93;0.60;;;9.10;99.90;;;;;;5010476;28;20197;-81
2024/03/29 05:42:26;;;;;;;3.10;0.77;;;9.00;1.00;;;;;;5011821;28;20223;-78
2024/03/29 05:44:54;;;;;;;2.03;0.53;;;9.00;1.00;;;;;;5011450;28;20220;-81
2024/03/29 05:47:21;;;;;;;2.87;0.60;;;8.80;1.00;;;;;;5016871;28;20225;-81
2024/03/29 05:49:50;;;;;;;1.17;0.70;;;8.70;1.00;;;;;;5017581;28;20267;-79
2024/03/29 05:52:17;;;;;;;2.57;0.70;;;8.60;1.00;;;;;;5022553;28;20688;-79
2024/03/29 05:54:45;;;;;;;2.50;0.87;;;8.50;99.90;;;;;;5022204;28;20220;-77
2024/03/29 05:57:12;;;;;;;3.07;0.83;;;8.50;99.90;;;;;;5021177;28;20212;-79
2024/03/29 05:59:39;;;;;;;4.80;0.97;;;8.40;1.00;;;;;;5023465;28;20196;-80
2024/03/29 06:02:06;;;;;;;2.10;0.77;;;8.30;1.00;;;;;;5020545;28;20208;-78
2024/03/29 06:04:33;;;;;;;4.57;0.77;;;8.20;1.00;;;;;;5023332;28;20633;-79
2024/03/29 06:07:02;;;;;;;2.10;0.80;;;8.10;26.90;;;;;;5014636;28;20727;-80
2024/03/29 06:09:29;;;;;;;2.07;0.67;;;8.10;99.90;;;;;;5006298;28;20205;-79
2024/03/29 06:11:57;;;;;;;2.00;0.90;;;8.10;99.90;;;;;;5011262;28;20259;-79
2024/03/29 06:17:24;;;;;;;1.93;0.87;;;8.10;99.90;;;;;;5014809;28;20988;-78
2024/03/29 06:19:51;;;;;;;2.40;0.87;;;8.10;1.00;;;;;;5018209;28;20251;-80
2024/03/29 06:22:19;;;;;;;3.57;1.00;;;8.00;1.00;;;;;;5017169;28;20228;-80
2024/03/29 06:24:48;;;;;;;1.60;0.73;;;8.00;1.00;;;;;;5011356;28;20228;-80
2024/03/29 06:27:17;;;;;;;3.30;0.80;;;7.90;1.00;;;;;;5015157;28;20212;-78
2024/03/29 06:29:44;;;;;;;2.87;0.80;;;7.90;1.00;;;;;;5011322;28;20655;-79
2024/03/29 06:32:11;;;;;;;6.37;1.10;;;7.90;1.00;;;;;;5015687;28;20631;-80
2024/03/29 06:34:38;;;;;;;1.93;0.80;;;7.80;1.00;;;;;;5018238;28;20251;-80
2024/03/29 06:37:05;;;;;;;3.40;1.37;;;7.70;1.00;;;;;;5017588;28;20278;-79
2024/03/29 06:39:33;;;;;;;1.40;0.93;;;7.60;99.90;;;;;;5012417;28;20213;-79
2024/03/29 06:42:00;;;;;;;1.73;0.90;;;7.50;99.90;;;;;;5014126;28;20200;-80
2024/03/29 06:44:27;;;;;;;2.23;0.93;;;7.50;1.00;;;;;;5021060;28;20201;-83
2024/03/29 06:46:55;;;;;;;5.00;1.50;;;7.50;1.00;;;;;;5006221;28;20604;-82
2024/03/29 06:49:21;;;;;;;1.17;0.50;;;7.40;1.00;;;;;;5009022;28;20201;-82
2024/03/29 06:51:49;;;;;;;2.27;1.00;;;7.40;1.00;;;;;;5012471;28;20228;-82
2024/03/29 06:54:16;;;;;;;5.63;1.77;;;7.40;38.00;;;;;;5013093;28;20239;-81
2024/03/29 06:56:44;;;;;;;5.40;1.27;;;7.30;99.90;;;;;;5007096;28;20622;-82
2024/03/29 06:59:11;;;;;;;5.83;1.10;;;7.30;99.90;;;;;;5011560;28;20653;-81
2024/03/29 07:01:38;;;;;;;6.03;1.43;;;7.30;1.00;;;;;;5010442;28;20209;-84
2024/03/29 07:04:05;;;;;;;1.80;0.93;;;7.40;1.00;;;;;;5011691;28;20209;-81
2024/03/29 07:06:37;;;;;;;1.80;1.10;;;7.30;99.90;;;;;;5014218;28;20247;-83
2024/03/29 07:09:04;;;;;;;3.47;1.10;;;7.30;99.90;;;;;;5012333;28;20205;-82
2024/03/29 07:11:31;;;;;;;4.30;1.10;;;7.40;1.00;;;;;;5009566;28;20299;-83
2024/03/29 07:14:02;;;;;;;3.53;1.00;;;7.30;1.00;;;;;;5013868;28;20259;-82
2024/03/29 07:16:29;;;;;;;1.23;0.63;;;7.40;1.00;;;;;;5016988;28;20224;-80
2024/03/29 07:18:56;;;;;;;2.17;0.70;;;7.30;1.00;;;;;;5012141;28;20224;-81
2024/03/29 07:21:25;;;;;;;2.23;1.07;;;7.30;1.00;;;;;;5014189;28;20211;-80
2024/03/29 07:23:51;;;;;;;3.63;1.00;;;7.40;1.00;;;;;;5009415;28;20259;-82
2024/03/29 07:26:18;;;;;;;1.80;0.93;;;7.50;1.00;;;;;;5014567;28;20224;-83
2024/03/29 07:28:45;;;;;;;2.13;1.10;;;7.50;99.90;;;;;;5020135;28;20255;-82
2024/03/29 07:31:14;;;;;;;2.20;0.87;;;7.60;99.90;;;;;;5017047;28;20559;-80
2024/03/29 07:33:41;;;;;;;2.40;1.00;;;7.60;1.00;;;;;;5010273;28;20651;-82
2024/03/29 07:36:09;;;;;;;2.33;1.20;;;7.60;1.00;;;;;;5010989;28;20299;-81
2024/03/29 07:38:37;;;;;;;2.77;1.13;;;7.70;1.00;;;;;;5002772;28;20231;-79
2024/03/29 07:41:06;;;;;;;1.63;0.97;;;7.70;99.90;;;;;;5008829;28;20250;-80
2024/03/29 07:43:42;;;;;;;2.77;0.87;;;7.80;43.20;;;;;;5007339;28;20282;-82
2024/03/29 07:46:09;;;;;;;2.10;1.13;;;7.80;1.00;;;;;;5002082;28;20220;-79
2024/03/29 07:48:38;;;;;;;4.87;1.10;;;7.90;12.60;;;;;;5011138;28;20240;-77
2024/03/29 07:51:05;;;;;;;4.30;1.10;;;8.00;99.90;;;;;;5013812;28;20211;-79
2024/03/29 07:53:34;;;;;;;2.93;1.20;;;8.10;1.00;;;;;;5014024;28;20196;-79
2024/03/29 07:56:01;;;;;;;4.37;1.10;;;8.10;99.90;;;;;;5011218;28;20757;-79
2024/03/29 07:58:28;;;;;;;4.07;0.90;;;8.10;1.00;;;;;;5012955;28;20282;-79
2024/03/29 08:00:55;;;;;;;1.93;0.90;;;8.20;1.00;;;;;;5007058;28;20258;-79
2024/03/29 08:03:25;;;;;;;2.60;1.10;;;8.30;1.00;;;;;;5012645;28;20275;-80
2024/03/29 08:06:04;;;;;;;1.37;0.93;;;8.50;1.00;;;;;;5017058;28;20236;-80
2024/03/29 08:08:31;;;;;;;1.00;1.00;;;8.60;1.00;;;;;;5011186;28;20573;-79
2024/03/29 08:10:58;;;;;;;3.93;1.20;;;8.80;1.00;;;;;;5015094;28;20212;-79
2024/03/29 08:13:25;;;;;;;1.90;0.80;;;8.90;1.00;;;;;;5006531;28;20205;-79
2024/03/29 08:15:59;;;;;;;2.67;0.90;;;9.10;1.00;;;;;;5013901;28;20224;-79
2024/03/29 08:18:26;;;;;;;1.23;0.97;;;9.20;1.00;;;;;;5014439;28;20255;-79
2024/03/29 08:20:55;;;;;;;1.47;0.90;;;9.30;99.90;;;;;;5009144;28;20579;-80
2024/03/29 08:23:23;;;;;;;2.83;0.90;;;9.50;99.90;;;;;;5007801;28;20203;-78
2024/03/29 08:41:59;;;;;;;4.10;1.00;;;10.50;1.00;;;;;;5071976;28;20264;-79
2024/03/29 08:44:43;;;;;;;0.83;0.77;;;10.30;1.00;;;;;;5061658;28;20292;-79
2024/03/29 08:47:20;;;;;;;2.20;0.60;;;10.50;99.90;;;;;;5066345;28;20729;-79
2024/03/29 08:49:48;;;;;;;1.60;0.80;;;10.50;99.90;;;;;;5068647;28;20560;-78
2024/03/29 08:52:18;;;;;;;3.50;1.00;;;10.50;1.00;;;;;;5069708;28;20202;-79
2024/03/29 08:54:45;;;;;;;4.37;1.30;;;10.60;66.20;;;;;;5068532;28;20222;-80
2024/03/29 08:57:12;;;;;;;1.20;0.90;;;10.50;94.80;;;;;;5072717;28;20207;-80
2024/03/29 08:59:41;;;;;;;1.23;1.07;;;10.50;13.00;;;;;;5059615;28;20203;-80
2024/03/29 09:02:09;;;;;;;1.97;0.80;;;10.40;1.00;;;;;;5070677;28;20664;-79
2024/03/29 09:04:38;;;;;;;1.57;0.80;;;10.50;1.00;;;;;;5065988;28;20289;-83
2024/03/29 09:07:05;;;;;;;3.73;0.90;;;10.60;99.90;;;;;;5056759;28;20620;-81
2024/03/29 09:09:33;;;;;;;3.30;1.00;;;10.70;1.00;;;;;;5054384;28;20226;-83
2024/03/29 09:12:00;;;;;;;1.40;0.77;;;10.80;1.00;;;;;;5056031;28;20206;-82
2024/03/29 09:14:29;;;;;;;1.43;0.70;;;10.80;1.00;;;;;;5057840;28;20564;-81
2024/03/29 09:16:56;;;;;;;1.00;0.70;;;10.90;1.00;;;;;;5062942;28;20198;-81
2024/03/29 09:19:25;;;;;;;2.37;1.30;;;11.00;1.00;;;;;;5063071;28;20222;-80
2024/03/29 09:21:52;;;;;;;2.00;0.87;;;11.00;1.00;;;;;;5062168;28;20203;-79
2024/03/29 09:24:22;;;;;;;3.23;1.20;;;11.00;1.00;;;;;;5059371;28;20206;-81
2024/03/29 09:26:50;;;;;;;2.00;0.90;;;11.10;1.00;;;;;;5064043;28;20218;-80
2024/03/29 09:29:18;;;;;;;2.80;1.00;;;11.10;1.00;;;;;;5059046;28;20267;-82
2024/03/29 09:31:46;;;;;;;3.47;0.80;;;11.30;1.00;;;;;;5067019;28;20195;-79
2024/03/29 09:34:16;;;;;;;2.80;0.70;;;11.40;1.00;;;;;;5067261;28;20723;-78
2024/03/29 09:36:44;;;;;;;1.03;0.70;;;11.50;1.00;;;;;;5070281;28;20235;-79
2024/03/29 09:39:11;;;;;;;1.07;0.60;;;11.60;1.00;;;;;;5065801;28;20656;-80
2024/03/29 09:41:41;;;;;;;0.97;0.67;;;11.70;1.00;;;;;;5076945;28;20202;-79
2024/03/29 09:44:13;;;;;;;0.73;0.73;;;11.80;1.00;;;;;;5071468;28;20683;-80
2024/03/29 09:46:42;;;;;;;1.13;1.00;;;12.00;1.00;;;;;;5067399;28;20225;-81
2024/03/29 09:49:10;;;;;;;2.43;0.80;;;12.20;1.00;;;;;;5069447;28;20225;-80
2024/03/29 09:51:38;;;;;;;1.47;1.00;;;12.10;1.00;;;;;;5066193;28;20205;-80
2024/03/29 09:54:08;;;;;;;1.10;0.83;;;12.20;1.00;;;;;;5070251;28;20252;-80
2024/03/29 09:56:35;;;;;;;0.77;0.77;;;11.90;99.90;;;;;;5074945;28;20222;-77
2024/03/29 09:59:03;;;;;;;1.70;0.60;;;12.00;1.00;;;;;;5072162;28;20566;-79
2024/03/29 10:01:31;;;;;;;0.60;0.57;;;12.10;99.90;;;;;;5068942;28;20206;-78
2024/03/29 10:04:01;;;;;;;2.20;0.90;;;12.40;1.00;;;;;;5081548;28;20208;-79
2024/03/29 10:06:30;;;;;;;1.27;0.83;;;12.30;1.00;;;;;;5076685;28;20279;-79
2024/03/29 10:08:58;;;;;;;0.70;0.67;;;12.30;99.90;;;;;;5077129;28;20656;-79
2024/03/29 10:11:27;;;;;;;0.87;0.70;;;12.20;99.90;;;;;;5063156;28;20322;-81
2024/03/29 10:13:54;;;;;;;2.93;0.70;;;12.30;99.90;;;;;;5073879;28;20687;-83
2024/03/29 10:16:24;;;;;;;1.30;0.80;;;12.40;1.00;;;;;;5056223;28;20277;-82
2024/03/29 10:18:52;;;;;;;0.90;0.73;;;12.60;99.90;;;;;;5063547;28;20281;-81
2024/03/29 10:21:26;;;;;;;2.00;0.67;;;12.90;99.90;;;;;;5069259;28;20214;-80
2024/03/29 10:23:53;;;;;;;1.00;0.80;;;12.90;99.90;;;;;;5060919;28;20643;-81
2024/03/29 10:26:20;;;;;;;1.23;0.70;;;12.80;99.90;;;;;;5066207;28;20745;-80
2024/03/29 10:28:51;;;;;;;0.90;0.70;;;12.90;99.90;;;;;;5064698;28;20293;-80
2024/03/29 10:31:19;;;;;;;1.37;0.70;;;12.90;99.90;;;;;;5066900;28;20657;-80
2024/03/29 10:33:46;;;;;;;0.90;0.90;;;12.90;99.90;;;;;;5058945;28;20206;-81
2024/03/29 10:36:15;;;;;;;1.37;0.87;;;13.30;99.90;;;;;;5070700;28;20227;-82
2024/03/29 10:38:42;;;;;;;2.07;0.90;;;13.40;99.90;;;;;;5072885;28;20249;-81
2024/03/29 10:41:10;;;;;;;1.47;0.90;;;13.20;99.90;;;;;;5069550;28;20231;-80
2024/03/29 10:43:39;;;;;;;2.63;0.67;;;13.40;11.40;;;;;;5078163;28;20202;-81
2024/03/29 10:46:07;;;;;;;3.13;0.60;;;13.60;1.00;;;;;;5079694;28;20249;-79
2024/03/29 10:48:36;;;;;;;2.10;0.97;;;13.70;1.00;;;;;;5083739;28;20233;-78
2024/03/29 10:51:04;;;;;;;1.07;0.67;;;13.60;1.00;;;;;;5071390;28;20284;-82
2024/03/29 10:53:32;;;;;;;1.60;0.90;;;13.70;1.00;;;;;;5082324;28;20206;-84
2024/03/29 10:55:59;;;;;;;0.77;0.50;;;13.60;1.00;;;;;;5076791;28;20214;-84
2024/03/29 10:58:31;;;;;;;2.10;0.60;;;13.60;1.00;;;;;;5082134;28;20271;-80
2024/03/29 11:01:00;;;;;;;0.60;0.60;;;13.80;1.00;;;;;;5077426;28;20650;-80
2024/03/29 11:03:38;;;;;;;0.70;0.60;;;13.90;1.00;;;;;;5075396;28;20552;-80
2024/03/29 11:06:06;;;;;;;1.90;0.80;;;13.90;1.00;;;;;;5075298;28;20226;-79
2024/03/29 11:08:37;;;;;;;1.20;0.65;;;14.00;1.00;;;;;;5080346;28;20198;-79
2024/03/29 11:11:06;;;;;;;0.43;0.43;;;13.80;1.00;;;;;;5070929;28;20206;-79
2024/03/29 11:13:37;;;;;;;1.03;0.87;;;13.90;1.00;;;;;;5072998;28;20247;-79
2024/03/29 11:16:05;;;;;;;1.73;0.80;;;14.10;1.00;;;;;;5067594;28;20226;-81
2024/03/29 11:18:34;;;;;;;1.23;0.70;;;14.10;1.00;;;;;;5060585;28;20223;-82
2024/03/29 11:21:05;;;;;;;1.92;0.60;;;13.90;1.00;;;;;;5069377;28;20235;-81
2024/03/29 11:23:34;;;;;;;1.73;0.67;;;14.00;1.00;;;;;;5074511;28;20958;-82
2024/03/29 11:26:02;;;;;;;2.30;1.38;;;14.30;1.00;;;;;;5073626;28;20225;-77
2024/03/29 11:28:31;;;;;;;2.05;0.85;;;14.60;1.00;;;;;;5076285;28;20659;-79
2024/03/29 11:31:04;;;;;;;1.27;0.63;;;14.70;1.00;;;;;;5074132;28;20233;-79
2024/03/29 11:33:34;;;;;;;1.02;0.50;;;14.90;1.00;;;;;;5074440;28;20210;-80
2024/03/29 11:36:07;;;;;;;0.73;0.60;;;15.40;1.00;;;;;;5068871;28;20267;-82
2024/03/29 11:38:35;;;;;;;0.50;0.40;;;15.00;1.00;;;;;;5067192;28;20260;-81
2024/03/29 11:41:04;;;;;;;1.02;0.52;;;15.00;1.00;;;;;;5071510;28;20265;-82
2024/03/29 11:43:31;;;;;;;0.68;0.68;;;15.00;1.00;;;;;;5076288;28;20206;-81
2024/03/29 11:46:00;;;;;;;1.73;0.68;;;15.40;1.00;;;;;;5070218;28;20289;-82
2024/03/29 11:48:29;;;;;;;1.13;0.68;;;15.40;1.00;;;;;;5065022;28;20237;-79
2024/03/29 11:50:57;;;;;;;0.77;0.50;;;15.80;1.00;;;;;;5072911;28;20206;-82
2024/03/29 11:53:25;;;;;;;0.65;0.50;;;15.70;1.00;;;;;;5072517;28;20206;-83
2024/03/29 11:55:57;;;;;;;0.90;0.50;;;15.90;1.00;;;;;;5076792;28;20591;-83
2024/03/29 11:58:25;;;;;;;0.28;0.28;;;15.60;1.00;;;;;;5080532;28;20703;-83
2024/03/29 12:00:52;;;;;;;0.60;0.60;;;15.50;1.00;;;;;;5072670;28;20691;-83
2024/03/29 12:03:25;;;;;;;0.73;0.52;;;15.40;1.00;;;;;;5073089;28;20291;-81
2024/03/29 12:05:54;;;;;;;0.88;0.55;;;15.40;99.90;;;;;;5091653;28;20221;-83
2024/03/29 12:08:23;;;;;;;0.80;0.70;;;15.40;99.90;;;;;;5077066;28;20223;-81
2024/03/29 12:10:50;;;;;;;1.05;0.52;;;15.40;1.00;;;;;;5085842;28;20206;-82
2024/03/29 12:13:18;;;;;;;0.57;0.38;;;15.10;99.90;;;;;;5073835;28;20743;-83
2024/03/29 12:15:45;;;;;;;1.85;0.95;;;15.10;99.90;;;;;;5067451;28;20234;-80
2024/03/29 12:18:12;;;;;;;1.23;0.43;;;15.20;99.90;;;;;;5068847;28;20214;-81
2024/03/29 12:20:40;;;;;;;1.48;0.55;;;15.50;99.90;;;;;;5063344;28;20639;-79
2024/03/29 12:23:08;;;;;;;0.95;0.75;;;15.90;99.90;;;;;;5072605;28;20217;-79
2024/03/29 12:25:38;;;;;;;2.25;0.82;;;15.50;99.90;;;;;;5062841;28;20779;-83
2024/03/29 12:28:06;;;;;;;0.90;0.70;;;15.50;99.90;;;;;;5064228;28;20336;-81
2024/03/29 12:30:33;;;;;;;1.48;0.68;;;15.20;99.90;;;;;;5065497;28;20301;-80
2024/03/29 12:33:06;;;;;;;0.73;0.60;;;15.30;99.90;;;;;;5064926;28;20245;-81
2024/03/29 12:35:33;;;;;;;0.90;0.52;;;15.40;99.90;;;;;;5060913;28;20696;-82
2024/03/29 12:38:02;;;;;;;1.45;0.85;;;15.60;99.90;;;;;;5062538;28;20206;-81
2024/03/29 12:40:35;;;;;;;1.95;0.57;;;15.50;99.90;;;;;;5061162;28;20270;-82
2024/03/29 12:43:08;;;;;;;1.50;0.80;;;15.70;99.90;;;;;;5070764;28;20231;-81
2024/03/29 12:45:36;;;;;;;1.15;0.50;;;15.40;99.90;;;;;;5071002;28;20653;-80
2024/03/29 12:48:03;;;;;;;0.93;0.50;;;15.40;99.90;;;;;;5061252;28;20213;-82
2024/03/29 12:50:32;;;;;;;0.98;0.40;;;15.40;99.90;;;;;;5069937;28;20197;-82
2024/03/29 12:53:01;;;;;;;0.73;0.50;;;15.40;99.90;;;;;;5073151;28;20198;-79
2024/03/29 12:55:31;;;;;;;0.93;0.60;;;15.70;99.90;;;;;;5074194;28;20252;-83
2024/03/29 12:58:00;;;;;;;1.00;0.57;;;16.10;99.90;;;;;;5071577;28;20202;-84
2024/03/29 13:00:28;;;;;;;1.67;0.63;;;15.80;99.90;;;;;;5075771;28;20281;-83
2024/03/29 13:02:55;;;;;;;1.15;0.52;;;16.10;99.90;;;;;;5072271;28;20210;-81
2024/03/29 13:05:23;;;;;;;0.75;0.60;;;15.90;99.90;;;;;;5072009;28;20275;-81
2024/03/29 13:07:50;;;;;;;2.00;0.60;;;15.90;99.90;;;;;;5071386;28;20198;-78
2024/03/29 13:10:19;;;;;;;2.35;0.80;;;15.40;99.90;;;;;;5075601;28;20209;-79
2024/03/29 13:12:50;;;;;;;2.13;0.60;;;15.30;99.90;;;;;;5068876;28;20206;-79
2024/03/29 13:15:19;;;;;;;0.68;0.63;;;15.10;99.90;;;;;;5065026;28;20231;-80
2024/03/29 13:17:49;;;;;;;2.25;1.10;;;15.00;99.90;;;;;;5057275;28;20601;-81
2024/03/29 13:20:17;;;;;;;1.65;0.75;;;15.00;99.90;;;;;;5062858;28;20322;-80
2024/03/29 13:22:46;;;;;;;1.00;0.70;;;14.90;99.90;;;;;;5056791;28;20238;-82
2024/03/29 13:25:13;;;;;;;2.05;0.80;;;15.00;99.90;;;;;;5059740;28;20237;-82
2024/03/29 13:27:41;;;;;;;0.98;0.52;;;14.90;99.90;;;;;;5061727;28;20195;-82
2024/03/29 13:30:12;;;;;;;1.75;0.90;;;14.80;99.90;;;;;;5073179;28;20236;-82
2024/03/29 13:32:40;;;;;;;0.28;0.28;;;15.00;99.90;;;;;;5064315;28;20211;-82
2024/03/29 13:35:10;;;;;;;1.95;0.75;;;15.00;99.90;;;;;;5063486;28;20680;-82
2024/03/29 13:37:38;;;;;;;1.80;0.50;;;15.00;99.90;;;;;;5065143;28;20297;-83
2024/03/29 13:40:07;;;;;;;0.50;0.50;;;15.20;99.90;;;;;;5065588;28;20214;-81
2024/03/29 13:42:38;;;;;;;0.82;0.57;;;15.00;99.90;;;;;;5069763;28;20224;-81
2024/03/29 13:45:06;;;;;;;0.93;0.55;;;15.00;99.90;;;;;;5063006;28;20218;-82
2024/03/29 13:47:34;;;;;;;0.50;0.50;;;15.00;99.90;;;;;;5068963;28;20235;-82
2024/03/29 13:50:01;;;;;;;2.78;1.05;;;15.00;99.90;;;;;;5065743;28;20723;-81
2024/03/29 13:52:30;;;;;;;1.70;0.52;;;15.20;99.90;;;;;;5067075;28;20467;-82
2024/03/29 13:54:57;;;;;;;0.85;0.65;;;15.30;99.90;;;;;;5065551;28;20692;-81
2024/03/29 13:57:24;;;;;;;2.40;0.60;;;15.30;99.90;;;;;;5066643;28;20252;-80
2024/03/29 13:59:51;;;;;;;0.60;0.50;;;15.40;99.90;;;;;;5060084;28;20613;-80
2024/03/29 14:02:19;;;;;;;1.05;0.75;;;15.70;99.90;;;;;;5071565;28;20257;-79
2024/03/29 14:04:47;;;;;;;0.50;0.50;;;15.80;99.90;;;;;;5066028;28;20222;-79
2024/03/29 14:07:17;;;;;;;1.33;0.52;;;15.60;99.90;;;;;;5075833;28;20211;-80
2024/03/29 14:09:48;;;;;;;1.65;0.73;;;15.50;99.90;;;;;;5072376;28;20195;-80
2024/03/29 14:12:15;;;;;;;0.65;0.52;;;15.60;99.90;;;;;;5072972;28;20198;-81
2024/03/29 14:14:42;;;;;;;0.60;0.50;;;15.50;99.90;;;;;;5072328;28;20221;-78
2024/03/29 14:17:09;;;;;;;0.77;0.63;;;15.40;99.90;;;;;;5077744;28;20637;-78
2024/03/29 14:19:37;;;;;;;1.77;0.80;;;15.40;99.90;;;;;;5071402;28;20218;-78
2024/03/29 14:22:04;;;;;;;0.63;0.63;;;15.40;99.90;;;;;;5063938;28;20203;-77
2024/03/29 14:24:35;;;;;;;1.60;0.70;;;15.50;99.90;;;;;;5061875;28;22185;-77
2024/03/29 14:27:04;;;;;;;0.60;0.47;;;15.40;99.90;;;;;;5066927;28;20202;-79
2024/03/29 14:29:31;;;;;;;2.15;1.00;;;15.50;99.90;;;;;;5062102;28;20248;-78
2024/03/29 14:32:02;;;;;;;1.83;1.33;;;15.90;99.90;;;;;;5063793;28;20203;-79
2024/03/29 14:34:31;;;;;;;0.57;0.52;;;15.90;97.80;;;;;;5070030;28;20234;-78
2024/03/29 14:36:58;;;;;;;1.52;0.80;;;15.70;58.00;;;;;;5068909;28;20243;-79
2024/03/29 14:39:25;;;;;;;0.45;0.45;;;15.90;44.10;;;;;;5073883;28;20222;-78
2024/03/29 14:41:53;;;;;;;0.70;0.70;;;16.10;76.90;;;;;;5079477;28;20237;-78
2024/03/29 14:44:22;;;;;;;2.83;0.55;;;16.30;1.00;;;;;;5074730;28;20210;-80
2024/03/29 14:46:52;;;;;;;0.50;0.50;;;16.20;1.00;;;;;;5072306;28;20237;-79
2024/03/29 14:49:20;;;;;;;2.47;0.65;;;16.20;1.00;;;;;;5074958;28;20285;-79
2024/03/29 14:51:47;;;;;;;1.15;0.47;;;16.10;1.00;;;;;;5078624;28;20255;-78
2024/03/29 14:54:15;;;;;;;0.75;0.50;;;15.80;1.00;;;;;;5071821;28;20793;-79
2024/03/29 14:56:42;;;;;;;0.98;0.70;;;15.90;1.00;;;;;;5070160;28;20222;-78
2024/03/29 14:59:11;;;;;;;1.20;0.68;;;16.00;1.00;;;;;;5076724;28;20195;-79
2024/03/29 15:01:42;;;;;;;1.33;0.68;;;16.40;1.00;;;;;;5086939;28;20243;-79
2024/03/29 15:04:09;;;;;;;0.63;0.45;;;16.50;1.00;;;;;;5075781;28;20216;-79
2024/03/29 15:06:36;;;;;;;1.58;0.60;;;16.60;1.00;;;;;;5076174;28;20275;-80
2024/03/29 15:09:04;;;;;;;0.60;0.47;;;16.20;1.00;;;;;;5078031;28;20206;-79